Currently 61°F in French Valley, California, USA
61°F
79°F / 58°F
calm
0.00"
Monday, October 14, 2019 9:27 PM PDT

French Valley, California Weather Summary
Last 36 Hours

Temperature Winds Hourly Humidity Dewpoint
Time Report Norm Report Norm Max Gusts Precip. Rpt. Norm Rpt. Norm Pressure
1Mon 09:27 PM  60.7°F  65°F  calm  1 mph  none  0.00"  89%  72%  57°F  55°F  30.03"
Mon 09:00 PM  61.3°F  66°F  calm  2 mph  6 mph  0.00"  88%  71%  58°F  56°F  30.02"
Mon 08:00 PM  63.1°F  67°F  3 mph SE  2 mph  7 mph  0.00"  86%  68%  59°F  56°F  30.00"
Mon 07:00 PM  66.1°F  70°F  3 mph S  3 mph  9 mph  0.00"  79%  61%  59°F  56°F  29.98"
Mon 06:00 PM  69.6°F  74°F  5 mph S  5 mph  12 mph  0.00"  70%  54%  59°F  56°F  29.96"
Mon 05:00 PM  73.0°F  77°F  5 mph SW  6 mph  13 mph  0.00"  60%  47%  58°F  55°F  29.95"
Mon 04:00 PM  75.2°F  79°F  6 mph SW  6 mph  13 mph  0.00"  51%  43%  55°F  54°F  29.94"
2Mon 03:13 PM  78.6°F  80°F  5 mph W  5 mph  7 mph  ----  38%  40%  50°F  53°F  29.93"
Mon 03:00 PM  77.4°F  80°F  2 mph W  5 mph  11 mph  0.00"  39%  40%  50°F  53°F  29.94"
Mon 02:00 PM  75.9°F  80°F  4 mph W  4 mph  11 mph  0.00"  40%  40%  49°F  53°F  29.95"
Mon 01:00 PM  73.6°F  79°F  1 mph SW  3 mph  9 mph  0.00"  49%  41%  52°F  52°F  29.98"
Mon 12:00 PM  70.5°F  77°F  3 mph SW  4 mph  9 mph  0.00"  57%  45%  54°F  53°F  30.01"
Mon 11:00 AM  66.8°F  73°F  2 mph NW  3 mph  9 mph  0.00"  66%  52%  55°F  54°F  30.03"
Mon 10:00 AM  63.8°F  69°F  2 mph NW  2 mph  8 mph  0.00"  76%  61%  56°F  55°F  30.04"
Mon 09:00 AM  62.5°F  65°F  1 mph E  1 mph  7 mph  0.00"  77%  70%  55°F  54°F  30.04"
Mon 08:00 AM  58.8°F  60°F  5 mph SE  1 mph  7 mph  0.00"  83%  77%  54°F  53°F  30.03"
Mon 07:00 AM  58.1°F  58°F  calm  1 mph  6 mph  0.00"  86%  79%  54°F  51°F  30.02"
3Mon 06:20 AM  57.7°F  58°F  4 mph SE  1 mph  6 mph  ----  86%  79%  53°F  52°F  30.01"
Mon 06:00 AM  57.7°F  59°F  4 mph SE  1 mph  6 mph  0.00"  86%  79%  53°F  52°F  30.01"
Mon 05:00 AM  59.4°F  59°F  calm  1 mph  4 mph  0.00"  88%  79%  56°F  52°F  30.00"
Mon 04:00 AM  59.2°F  60°F  calm  1 mph  3 mph  0.00"  88%  78%  55°F  53°F  29.98"
Mon 03:00 AM  59.1°F  60°F  1 mph NE  1 mph  4 mph  0.00"  89%  77%  56°F  53°F  29.98"
Mon 02:00 AM  59.4°F  61°F  calm  1 mph  4 mph  0.00"  90%  77%  56°F  53°F  29.98"
Mon 01:00 AM  59.4°F  62°F  1 mph SW  1 mph  7 mph  0.00"  92%  76%  57°F  54°F  29.98"
Mon 12:00 AM  59.5°F  62°F  1 mph SW  1 mph  6 mph  0.00"  94%  75%  58°F  54°F  29.98"
Sun 11:00 PM  59.5°F  63°F  2 mph S  1 mph  8 mph  0.00"  95%  74%  58°F  55°F  29.97"
Sun 10:00 PM  59.4°F  64°F  5 mph S  1 mph  9 mph  0.00"  95%  72%  58°F  55°F  29.97"
Sun 09:00 PM  59.5°F  66°F  5 mph SE  2 mph  10 mph  0.00"  95%  71%  58°F  56°F  29.96"
Sun 08:00 PM  60.5°F  68°F  6 mph S  2 mph  10 mph  0.00"  93%  67%  58°F  56°F  29.94"
Sun 07:00 PM  63.7°F  70°F  6 mph S  3 mph  11 mph  0.00"  86%  61%  59°F  56°F  29.92"
Sun 06:00 PM  67.2°F  74°F  8 mph S  5 mph  14 mph  0.00"  75%  54%  59°F  56°F  29.90"
Sun 05:00 PM  72.2°F  77°F  7 mph S  6 mph  12 mph  0.00"  61%  46%  58°F  55°F  29.89"
Sun 04:00 PM  75.2°F  80°F  6 mph SW  6 mph  15 mph  0.00"  50%  42%  55°F  54°F  29.89"
Sun 03:00 PM  78.4°F  81°F  1 mph W  5 mph  16 mph  0.00"  39%  39%  51°F  53°F  29.90"
Sun 02:00 PM  78.2°F  80°F  10 mph S  4 mph  13 mph  0.00"  41%  39%  52°F  52°F  29.91"
Sun 01:00 PM  78.2°F  79°F  7 mph S  3 mph  10 mph  0.00"  37%  40%  49°F  52°F  29.93"
Sun 12:00 PM  75.3°F  77°F  calm  3 mph  8 mph  0.00"  37%  44%  46°F  52°F  29.95"
Sun 11:00 AM  71.9°F  74°F  1 mph W  3 mph  8 mph  0.00"  36%  51%  43°F  54°F  29.98"
Sun 10:00 AM  68.2°F  69°F  calm  2 mph  4 mph  0.00"  42%  60%  43°F  54°F  29.99"

  1. Current weather data. No green row appears if the current weather data is also the high or low for the current day.
  2. High temperature for the current day.
  3. Low temperature for the current day.

The French Valley, California weather pages are a service of WeatherCurrents. French Valley is located in southwestern Riverside County, California, north of Temecula, east of Murrieta, and south of Winchester. French Valley is bordered by Lake Skinner.
Copyright ©2019  WeatherCurrents. All rights reserved. - Submit questions and comments - Privacy Policy

This page automatically refreshes every 10 minutes.